Time;durP1;ratioP1;P1;durP2;ratioP2;P2;SDS_P1;SDS_P2;PMS_P1;PMS_P2;Temp;Humidity;BMP_temperature;BMP_pressure;BME280_temperature;BME280_humidity;BME280_pressure;Samples;Min_cycle;Max_cycle;Signal;HPM_P1;HPM_P2
2021/04/04 00:02:17;;;;;;;15.17;5.37;;;6.40;99.90;;;;;;4986939;28;20652;-66
2021/04/04 00:04:43;;;;;;;13.53;5.47;;;6.30;99.90;;;;;;4988727;28;20206;-67
2021/04/04 00:07:11;;;;;;;11.77;5.27;;;6.30;99.90;;;;;;4990887;28;20221;-64
2021/04/04 00:09:37;;;;;;;13.07;4.57;;;6.30;99.90;;;;;;4976578;28;20548;-67
2021/04/04 00:12:06;;;;;;;16.53;5.27;;;6.40;99.90;;;;;;4984243;28;20201;-64
2021/04/04 00:14:33;;;;;;;11.57;4.60;;;6.30;99.90;;;;;;4984855;28;20631;-65
2021/04/04 00:16:59;;;;;;;10.83;4.67;;;6.30;99.90;;;;;;4991102;28;20650;-73
2021/04/04 00:19:25;;;;;;;14.00;4.87;;;6.40;99.90;;;;;;4988382;28;20202;-71
2021/04/04 00:21:52;;;;;;;8.60;3.83;;;6.30;99.90;;;;;;4988256;28;20590;-73
2021/04/04 00:24:19;;;;;;;18.83;5.07;;;6.40;99.90;;;;;;4983950;28;20199;-72
2021/04/04 00:26:46;;;;;;;9.13;4.27;;;6.30;99.90;;;;;;4974490;28;20593;-73
2021/04/04 00:29:13;;;;;;;19.03;4.83;;;6.40;99.90;;;;;;4988173;28;20214;-68
2021/04/04 00:31:39;;;;;;;11.10;4.40;;;6.30;99.90;;;;;;4990372;28;20240;-63
2021/04/04 00:34:06;;;;;;;13.93;4.60;;;6.30;99.90;;;;;;4989061;28;20201;-62
2021/04/04 00:36:33;;;;;;;13.70;5.33;;;6.30;99.90;;;;;;4992806;28;20193;-65
2021/04/04 00:39:00;;;;;;;10.97;5.03;;;6.30;99.90;;;;;;4988774;28;20246;-63
2021/04/04 00:41:27;;;;;;;13.70;5.47;;;6.30;99.90;;;;;;4990410;28;20703;-64
2021/04/04 00:43:54;;;;;;;10.63;5.70;;;6.30;99.90;;;;;;4989281;28;20248;-64
2021/04/04 00:46:20;;;;;;;15.13;6.10;;;6.40;99.90;;;;;;4988714;28;20292;-68
2021/04/04 00:48:46;;;;;;;13.40;5.70;;;6.30;99.90;;;;;;4978308;28;20202;-63
2021/04/04 00:51:13;;;;;;;13.77;5.63;;;6.30;99.90;;;;;;4992746;28;20205;-63
2021/04/04 00:53:40;;;;;;;14.43;5.30;;;6.30;99.90;;;;;;4985625;28;20249;-63
2021/04/04 00:56:07;;;;;;;10.80;5.23;;;6.30;99.90;;;;;;4990442;28;20205;-63
2021/04/04 00:58:34;;;;;;;16.90;5.80;;;6.30;99.90;;;;;;4987786;28;20205;-63
2021/04/04 01:01:01;;;;;;;13.33;5.37;;;6.30;99.90;;;;;;4991572;28;20198;-62
2021/04/04 01:03:27;;;;;;;11.73;4.87;;;6.30;99.90;;;;;;4987042;28;20204;-65
2021/04/04 01:05:55;;;;;;;11.47;4.83;;;6.30;99.90;;;;;;4981908;28;20225;-63
2021/04/04 01:08:23;;;;;;;11.20;4.43;;;6.30;99.90;;;;;;4987009;28;20285;-62
2021/04/04 01:10:51;;;;;;;13.93;4.77;;;6.30;99.90;;;;;;4993060;28;20198;-68
2021/04/04 01:13:21;;;;;;;10.53;4.33;;;6.30;99.90;;;;;;4992773;28;20559;-62
2021/04/04 01:15:53;;;;;;;8.93;3.83;;;6.20;99.90;;;;;;4993719;28;20208;-62
2021/04/04 01:18:27;;;;;;;18.83;4.83;;;6.30;99.90;;;;;;4988255;28;20260;-65
2021/04/04 01:20:56;;;;;;;17.00;4.67;;;6.20;99.90;;;;;;4988302;28;20272;-65
2021/04/04 01:23:53;;;;;;;11.53;4.40;;;6.20;99.90;;;;;;4976274;28;20204;-62
2021/04/04 01:26:39;;;;;;;12.00;4.90;;;6.20;99.90;;;;;;4979493;28;20301;-64
2021/04/04 01:29:09;;;;;;;11.40;5.90;;;6.20;99.90;;;;;;4990942;28;20193;-63
2021/04/04 01:31:36;;;;;;;14.33;5.57;;;6.20;99.90;;;;;;4991031;28;20260;-67
2021/04/04 01:34:05;;;;;;;14.23;5.23;;;6.20;99.90;;;;;;4983102;28;20217;-65
2021/04/04 01:36:35;;;;;;;11.73;5.07;;;6.20;99.90;;;;;;4990519;28;20197;-73
2021/04/04 01:39:06;;;;;;;10.80;4.53;;;6.20;99.90;;;;;;4994793;28;20205;-71
2021/04/04 01:41:35;;;;;;;11.17;4.90;;;6.20;99.90;;;;;;4983308;28;20202;-70
2021/04/04 01:44:08;;;;;;;14.17;5.27;;;6.20;99.90;;;;;;4984452;28;20294;-73
2021/04/04 01:46:35;;;;;;;9.47;5.07;;;6.20;99.90;;;;;;4981393;28;20218;-71
2021/04/04 01:49:02;;;;;;;11.30;5.00;;;6.10;99.90;;;;;;4986303;28;20201;-72
2021/04/04 01:51:30;;;;;;;10.63;5.20;;;6.10;99.90;;;;;;4974221;28;20202;-70
2021/04/04 01:54:03;;;;;;;10.67;4.70;;;6.10;99.90;;;;;;4992403;28;20687;-74
2021/04/04 01:56:30;;;;;;;10.20;4.73;;;6.20;99.90;;;;;;4987963;28;20194;-72
2021/04/04 01:58:58;;;;;;;13.63;4.63;;;6.10;99.90;;;;;;4990873;28;20588;-72
2021/04/04 02:01:26;;;;;;;12.73;4.00;;;6.10;99.90;;;;;;4989271;28;20198;-73
2021/04/04 02:03:53;;;;;;;11.53;4.83;;;6.20;99.90;;;;;;4987354;28;20209;-63
2021/04/04 02:06:20;;;;;;;12.13;4.50;;;6.10;99.90;;;;;;4977015;28;20226;-64
2021/04/04 02:08:47;;;;;;;11.10;4.53;;;6.10;99.90;;;;;;4989099;28;20238;-62
2021/04/04 02:11:17;;;;;;;13.13;5.00;;;6.20;99.90;;;;;;4992710;28;20224;-62
2021/04/04 02:13:45;;;;;;;14.13;4.60;;;6.20;99.90;;;;;;4991722;28;20590;-62
2021/04/04 02:16:13;;;;;;;9.30;4.90;;;6.10;99.90;;;;;;4994767;28;20198;-66
2021/04/04 02:18:44;;;;;;;14.60;4.50;;;6.20;99.90;;;;;;4991042;28;20197;-64
2021/04/04 02:21:11;;;;;;;11.33;4.57;;;6.20;99.90;;;;;;4979953;28;20248;-67
2021/04/04 02:23:38;;;;;;;13.37;4.80;;;6.20;99.90;;;;;;4989722;28;20240;-65
2021/04/04 02:26:05;;;;;;;13.80;5.17;;;6.20;99.90;;;;;;4992979;28;20234;-66
2021/04/04 02:28:31;;;;;;;14.63;5.77;;;6.10;99.90;;;;;;4993020;28;20198;-66
2021/04/04 02:30:58;;;;;;;14.13;4.87;;;6.20;99.90;;;;;;4988251;28;20237;-63
2021/04/04 02:33:32;;;;;;;14.17;4.90;;;6.10;99.90;;;;;;4994097;28;20197;-65
2021/04/04 02:36:05;;;;;;;15.70;5.97;;;6.10;99.90;;;;;;4993843;28;20209;-63
2021/04/04 02:38:34;;;;;;;19.33;6.60;;;6.10;99.90;;;;;;4993314;28;20194;-64
2021/04/04 02:41:03;;;;;;;17.53;6.07;;;6.10;99.90;;;;;;4992482;28;20248;-63
2021/04/04 02:43:31;;;;;;;13.10;5.23;;;6.10;99.90;;;;;;4993884;28;20268;-64
2021/04/04 02:46:00;;;;;;;10.40;5.20;;;6.10;99.90;;;;;;4991643;28;20240;-65
2021/04/04 02:48:30;;;;;;;12.97;5.30;;;6.10;99.90;;;;;;4995736;28;20206;-65
2021/04/04 02:51:01;;;;;;;13.03;6.27;;;6.10;99.90;;;;;;4994340;28;20201;-63
2021/04/04 02:53:29;;;;;;;13.27;6.60;;;6.10;99.90;;;;;;4988424;28;20198;-64
2021/04/04 02:55:57;;;;;;;13.07;6.40;;;6.10;99.90;;;;;;4992950;28;20237;-66
2021/04/04 02:58:25;;;;;;;11.60;5.77;;;6.10;99.90;;;;;;4991003;28;20198;-63
2021/04/04 03:00:57;;;;;;;10.77;6.30;;;6.10;99.90;;;;;;4992069;28;20204;-63
2021/04/04 03:03:26;;;;;;;14.47;5.93;;;6.10;99.90;;;;;;4992395;28;20193;-63
2021/04/04 03:05:54;;;;;;;13.60;7.20;;;6.10;99.90;;;;;;4994112;28;20233;-63
2021/04/04 03:08:23;;;;;;;14.53;6.17;;;6.10;99.90;;;;;;4993176;28;20198;-63
2021/04/04 03:10:51;;;;;;;15.67;5.83;;;6.10;99.90;;;;;;4992880;28;20248;-64
2021/04/04 03:13:20;;;;;;;13.43;6.33;;;6.10;99.90;;;;;;4993303;28;20594;-64
2021/04/04 03:15:48;;;;;;;15.27;6.20;;;6.10;99.90;;;;;;4991461;28;20202;-65
2021/04/04 03:18:17;;;;;;;11.53;6.17;;;6.10;99.90;;;;;;4982529;28;20206;-67
2021/04/04 03:20:44;;;;;;;13.87;6.00;;;6.10;99.90;;;;;;4992509;28;20213;-64
2021/04/04 03:23:12;;;;;;;16.43;6.60;;;6.10;99.90;;;;;;4992361;28;20198;-69
2021/04/04 03:25:40;;;;;;;14.23;7.07;;;6.10;99.90;;;;;;4992640;28;20202;-65
2021/04/04 03:28:07;;;;;;;16.50;6.43;;;6.10;99.90;;;;;;4991633;28;20209;-62
2021/04/04 03:30:42;;;;;;;12.13;5.37;;;6.10;99.90;;;;;;4989411;28;20700;-63
2021/04/04 03:33:11;;;;;;;10.17;5.07;;;6.10;99.90;;;;;;4984099;28;20201;-62
2021/04/04 03:35:40;;;;;;;9.00;4.33;;;6.10;99.90;;;;;;4991747;28;20203;-63
2021/04/04 03:38:09;;;;;;;7.30;2.97;;;6.00;99.90;;;;;;4990211;28;20682;-64
2021/04/04 03:40:36;;;;;;;8.87;3.50;;;6.10;99.90;;;;;;4991903;28;20594;-65
2021/04/04 03:43:09;;;;;;;8.23;3.50;;;6.10;99.90;;;;;;4990569;28;20216;-63
2021/04/04 03:45:36;;;;;;;6.83;3.33;;;6.10;99.90;;;;;;4975148;28;20194;-64
2021/04/04 03:48:04;;;;;;;8.03;3.40;;;6.10;99.90;;;;;;4987371;28;20293;-62
2021/04/04 03:50:33;;;;;;;9.60;2.93;;;6.10;99.90;;;;;;4957996;28;20198;-65
2021/04/04 03:53:00;;;;;;;8.67;3.87;;;6.10;99.90;;;;;;4991768;28;20300;-63
2021/04/04 03:55:29;;;;;;;7.97;4.03;;;6.10;99.90;;;;;;4992397;28;20572;-64
2021/04/04 03:57:56;;;;;;;12.77;4.27;;;6.10;99.90;;;;;;4991336;28;20209;-63
2021/04/04 04:00:27;;;;;;;9.37;4.70;;;6.10;99.90;;;;;;4989818;28;20205;-67
2021/04/04 04:02:54;;;;;;;9.90;4.13;;;6.10;99.90;;;;;;4990371;28;20591;-64
2021/04/04 04:05:23;;;;;;;9.47;4.27;;;6.10;99.90;;;;;;4990103;28;20209;-64
2021/04/04 04:07:50;;;;;;;10.13;4.57;;;6.10;99.90;;;;;;4991612;28;20209;-64
2021/04/04 04:10:18;;;;;;;7.40;3.90;;;6.10;99.90;;;;;;4988709;28;20495;-63
2021/04/04 04:12:47;;;;;;;8.30;3.77;;;6.10;99.90;;;;;;4992380;28;20209;-64
2021/04/04 04:15:15;;;;;;;8.53;4.27;;;6.10;99.90;;;;;;4990490;28;20212;-64
2021/04/04 04:17:44;;;;;;;9.50;3.90;;;6.10;99.90;;;;;;4992801;28;20206;-63
2021/04/04 04:20:13;;;;;;;6.63;3.57;;;6.10;99.90;;;;;;4988896;28;20202;-65
2021/04/04 04:22:40;;;;;;;6.80;3.70;;;6.10;99.90;;;;;;4989976;28;20655;-65
2021/04/04 04:25:10;;;;;;;10.87;3.50;;;6.10;99.90;;;;;;4990211;28;20567;-64
2021/04/04 04:27:37;;;;;;;8.73;3.60;;;6.00;99.90;;;;;;4989815;28;20729;-63
2021/04/04 04:30:06;;;;;;;8.53;3.17;;;6.10;99.90;;;;;;4981941;28;20217;-65
2021/04/04 04:32:35;;;;;;;7.93;3.47;;;6.00;99.90;;;;;;4987988;28;20292;-64
2021/04/04 04:35:05;;;;;;;16.37;3.80;;;6.00;99.90;;;;;;4991377;28;20240;-64
2021/04/04 04:37:34;;;;;;;6.50;3.20;;;6.00;99.90;;;;;;4990365;28;20201;-65
2021/04/04 04:40:04;;;;;;;7.87;3.30;;;6.00;99.90;;;;;;4989741;28;20205;-62
2021/04/04 04:42:33;;;;;;;7.87;3.00;;;6.00;99.90;;;;;;4989673;28;20582;-63
2021/04/04 04:45:00;;;;;;;6.80;3.13;;;6.00;99.90;;;;;;4992890;28;20247;-64
2021/04/04 04:47:27;;;;;;;6.83;2.97;;;6.00;99.90;;;;;;4993235;28;20225;-62
2021/04/04 04:49:54;;;;;;;9.23;3.47;;;6.00;99.90;;;;;;4994635;28;20252;-64
2021/04/04 04:52:24;;;;;;;9.27;3.80;;;6.00;99.90;;;;;;4994749;28;20268;-64
2021/04/04 04:54:50;;;;;;;12.17;4.87;;;6.00;99.90;;;;;;4994027;28;20210;-64
2021/04/04 04:57:18;;;;;;;12.43;4.30;;;6.00;99.90;;;;;;4994034;28;20205;-62
2021/04/04 04:59:47;;;;;;;9.67;3.90;;;6.00;99.90;;;;;;4995444;28;20566;-62
2021/04/04 05:02:16;;;;;;;9.00;3.33;;;5.90;99.90;;;;;;4991639;28;20574;-63
2021/04/04 05:04:46;;;;;;;7.40;3.17;;;6.00;99.90;;;;;;4993085;28;20293;-63
2021/04/04 05:07:14;;;;;;;10.33;3.77;;;6.00;99.90;;;;;;4994715;28;20256;-63
2021/04/04 05:09:43;;;;;;;13.17;4.10;;;5.90;99.90;;;;;;4993522;28;20201;-63
2021/04/04 05:12:11;;;;;;;7.60;4.00;;;6.00;99.90;;;;;;4978122;28;20277;-64
2021/04/04 05:14:38;;;;;;;9.30;3.87;;;6.00;99.90;;;;;;4987524;28;20201;-64
2021/04/04 05:17:05;;;;;;;11.53;3.57;;;5.90;99.90;;;;;;4990178;28;20240;-67
2021/04/04 05:19:32;;;;;;;8.97;4.40;;;5.90;99.90;;;;;;4993409;28;20202;-64
2021/04/04 05:21:58;;;;;;;8.67;4.90;;;5.90;99.90;;;;;;4994814;28;20193;-64
2021/04/04 05:24:26;;;;;;;9.23;4.20;;;5.90;99.90;;;;;;4994781;28;20252;-64
2021/04/04 05:26:54;;;;;;;11.73;4.77;;;5.90;99.90;;;;;;4993974;28;20275;-65
2021/04/04 05:29:21;;;;;;;8.83;4.33;;;5.90;99.90;;;;;;4994927;28;20204;-65
2021/04/04 05:31:49;;;;;;;11.00;3.97;;;5.90;99.90;;;;;;4992673;28;20234;-64
2021/04/04 05:34:18;;;;;;;13.90;4.47;;;6.00;99.90;;;;;;4983807;28;20660;-64
2021/04/04 05:36:49;;;;;;;13.60;4.30;;;5.90;99.90;;;;;;4995608;28;20201;-64
2021/04/04 05:39:17;;;;;;;10.97;4.47;;;6.00;99.90;;;;;;4992427;28;20252;-64
2021/04/04 05:41:49;;;;;;;12.13;4.53;;;6.00;99.90;;;;;;4991581;28;20197;-64
2021/04/04 05:44:19;;;;;;;13.97;4.77;;;6.00;99.90;;;;;;4993724;28;20194;-63
2021/04/04 05:46:54;;;;;;;15.00;4.33;;;6.00;99.90;;;;;;4993695;28;20218;-63
2021/04/04 05:49:34;;;;;;;11.27;4.40;;;6.10;99.90;;;;;;4994196;28;20745;-65
2021/04/04 05:52:06;;;;;;;10.93;4.63;;;6.10;99.90;;;;;;4992799;28;20200;-64
2021/04/04 05:54:55;;;;;;;8.93;4.40;;;6.10;99.90;;;;;;4994554;28;20198;-65
2021/04/04 05:57:28;;;;;;;10.73;4.13;;;6.10;99.90;;;;;;4990118;28;20216;-65
2021/04/04 06:00:01;;;;;;;8.87;3.70;;;6.10;99.90;;;;;;4995392;28;20213;-65
2021/04/04 06:03:12;;;;;;;10.40;3.57;;;6.10;99.90;;;;;;4990687;28;20228;-62
2021/04/04 06:06:02;;;;;;;9.90;3.47;;;6.10;99.90;;;;;;4994300;28;20197;-65
2021/04/04 06:09:10;;;;;;;11.10;3.83;;;6.20;99.90;;;;;;4994430;28;20205;-65
2021/04/04 06:11:58;;;;;;;8.03;3.93;;;6.20;99.90;;;;;;4974327;28;20231;-63
2021/04/04 06:14:30;;;;;;;8.23;3.43;;;6.20;99.90;;;;;;4993998;28;20252;-62
2021/04/04 06:17:07;;;;;;;8.80;3.77;;;6.30;99.90;;;;;;4992505;28;20213;-64
2021/04/04 06:19:43;;;;;;;9.63;3.83;;;6.30;99.90;;;;;;4987242;28;20658;-68
2021/04/04 06:22:15;;;;;;;11.03;3.77;;;6.30;99.90;;;;;;4983149;28;20244;-62
2021/04/04 06:24:46;;;;;;;12.83;5.43;;;6.40;99.90;;;;;;4992370;28;20198;-65
2021/04/04 06:27:20;;;;;;;7.17;4.60;;;6.40;99.90;;;;;;4980152;28;20240;-63
2021/04/04 06:30:20;;;;;;;9.10;5.00;;;6.40;99.90;;;;;;4992742;28;20225;-64
2021/04/04 06:32:58;;;;;;;8.67;4.03;;;6.40;99.90;;;;;;4990744;28;20240;-63
2021/04/04 06:35:37;;;;;;;10.63;4.50;;;6.50;99.90;;;;;;4993198;28;20193;-63
2021/04/04 06:38:15;;;;;;;7.97;3.47;;;6.50;99.90;;;;;;4991220;28;20209;-62
2021/04/04 06:40:46;;;;;;;8.90;4.03;;;6.50;99.90;;;;;;4992378;28;20197;-62
2021/04/04 06:43:21;;;;;;;7.70;4.57;;;6.50;99.90;;;;;;4989536;28;20693;-63
2021/04/04 06:46:00;;;;;;;8.90;5.00;;;6.60;99.90;;;;;;4986739;28;20205;-67
2021/04/04 06:48:46;;;;;;;8.83;3.60;;;6.70;99.90;;;;;;4983976;28;20205;-63
2021/04/04 06:51:19;;;;;;;8.67;3.53;;;6.60;99.90;;;;;;4992124;28;20201;-63
2021/04/04 06:54:10;;;;;;;8.07;3.67;;;6.50;99.90;;;;;;4993401;28;20201;-63
2021/04/04 06:56:53;;;;;;;8.17;3.70;;;6.50;99.90;;;;;;4991571;28;20225;-63
2021/04/04 06:59:27;;;;;;;8.70;4.23;;;6.60;99.90;;;;;;4993431;28;20205;-65
2021/04/04 07:02:00;;;;;;;7.73;3.77;;;6.60;99.90;;;;;;4990328;28;20198;-64
2021/04/04 07:04:37;;;;;;;11.70;5.00;;;6.70;99.90;;;;;;4984642;28;20201;-71
2021/04/04 07:07:24;;;;;;;9.93;4.63;;;6.70;99.90;;;;;;4993092;28;20259;-71
2021/04/04 07:10:18;;;;;;;9.40;4.30;;;6.80;99.90;;;;;;4988040;28;20202;-67
2021/04/04 07:13:18;;;;;;;9.60;4.07;;;6.80;99.90;;;;;;4990536;28;20205;-71
2021/04/04 07:15:58;;;;;;;8.57;4.43;;;6.80;99.90;;;;;;4983284;28;20215;-71
2021/04/04 07:18:39;;;;;;;8.30;4.03;;;6.90;99.90;;;;;;4996839;28;20204;-72
2021/04/04 07:21:41;;;;;;;12.83;4.33;;;6.90;99.90;;;;;;4993117;28;20197;-67
2021/04/04 07:24:17;;;;;;;8.13;3.83;;;6.90;99.90;;;;;;4957699;28;20205;-67
2021/04/04 07:26:58;;;;;;;8.23;3.70;;;6.90;99.90;;;;;;4991767;28;20228;-63
2021/04/04 07:29:52;;;;;;;12.60;5.30;;;6.90;99.90;;;;;;4998185;28;20194;-63
2021/04/04 07:32:23;;;;;;;9.20;4.83;;;6.90;99.90;;;;;;4991483;28;20236;-63
2021/04/04 07:34:56;;;;;;;7.90;4.67;;;7.00;99.90;;;;;;4992288;28;20197;-67
2021/04/04 07:37:35;;;;;;;8.13;4.30;;;7.00;99.90;;;;;;4991200;28;20197;-67
2021/04/04 07:40:10;;;;;;;6.97;4.27;;;7.10;99.90;;;;;;4990890;28;20194;-63
2021/04/04 07:42:47;;;;;;;8.17;4.37;;;7.10;99.90;;;;;;4992563;28;20197;-64
2021/04/04 07:45:18;;;;;;;7.90;3.97;;;7.10;99.90;;;;;;4990820;28;20702;-63
2021/04/04 07:47:54;;;;;;;6.97;4.70;;;7.10;99.90;;;;;;4991761;28;20241;-64
2021/04/04 07:50:26;;;;;;;7.97;4.17;;;7.20;99.90;;;;;;4992839;28;20208;-63
2021/04/04 07:53:00;;;;;;;8.47;4.00;;;7.30;99.90;;;;;;4992569;28;20217;-64
2021/04/04 07:55:35;;;;;;;10.67;3.90;;;7.20;99.90;;;;;;4976866;28;20233;-69
2021/04/04 07:58:10;;;;;;;7.17;3.33;;;7.30;99.90;;;;;;4989960;28;20224;-62
2021/04/04 08:00:42;;;;;;;5.97;2.70;;;7.40;99.90;;;;;;4989685;28;20734;-63
2021/04/04 08:03:12;;;;;;;5.70;3.40;;;7.40;99.90;;;;;;4991074;28;20216;-61
2021/04/04 08:05:44;;;;;;;5.40;2.80;;;7.50;99.90;;;;;;4990943;28;20209;-65
2021/04/04 08:08:15;;;;;;;5.43;2.60;;;7.60;99.90;;;;;;4986303;28;20221;-65
2021/04/04 08:10:52;;;;;;;5.80;2.10;;;7.60;99.90;;;;;;4991640;28;20295;-67
2021/04/04 08:13:24;;;;;;;6.70;2.70;;;7.60;99.90;;;;;;4989942;28;20543;-66
2021/04/04 08:16:03;;;;;;;4.10;2.23;;;7.80;99.90;;;;;;4992133;28;20284;-67
2021/04/04 08:18:30;;;;;;;5.90;2.30;;;7.80;99.90;;;;;;4990145;28;20193;-66
2021/04/04 08:21:03;;;;;;;3.17;2.30;;;8.00;99.90;;;;;;4991236;28;20267;-67
2021/04/04 08:23:36;;;;;;;6.67;2.70;;;8.00;99.90;;;;;;4993872;28;20200;-64
2021/04/04 08:26:06;;;;;;;7.80;2.80;;;8.10;99.90;;;;;;4991528;28;20203;-66
2021/04/04 08:28:40;;;;;;;8.10;2.77;;;8.10;99.90;;;;;;4990422;28;20197;-66
2021/04/04 08:31:13;;;;;;;6.47;2.87;;;8.10;99.90;;;;;;4980019;28;20225;-62
2021/04/04 08:33:46;;;;;;;3.60;2.60;;;8.10;99.90;;;;;;4992088;28;20193;-65
2021/04/04 08:36:17;;;;;;;5.00;2.50;;;8.20;99.90;;;;;;4973220;28;20710;-66
2021/04/04 08:38:47;;;;;;;5.57;2.73;;;8.10;99.90;;;;;;4977152;28;20720;-65
2021/04/04 08:41:16;;;;;;;6.50;2.73;;;8.20;99.90;;;;;;4990496;28;20229;-70
2021/04/04 08:43:46;;;;;;;4.30;2.90;;;8.20;99.90;;;;;;4991432;28;20197;-65
2021/04/04 08:46:22;;;;;;;6.43;2.93;;;8.30;99.90;;;;;;4992382;28;20229;-67
2021/04/04 08:48:49;;;;;;;6.27;2.60;;;8.30;99.90;;;;;;4992389;28;20213;-66
2021/04/04 08:51:21;;;;;;;3.83;2.53;;;8.40;99.90;;;;;;4991269;28;20205;-66
2021/04/04 08:53:51;;;;;;;5.67;2.33;;;8.40;99.90;;;;;;4989748;28;20273;-66
2021/04/04 08:56:19;;;;;;;4.57;2.50;;;8.40;99.90;;;;;;4991742;28;20209;-64
2021/04/04 08:58:50;;;;;;;9.07;2.27;;;8.50;99.90;;;;;;4989655;28;20679;-65
2021/04/04 09:01:21;;;;;;;6.77;3.20;;;8.50;99.90;;;;;;4989376;28;20194;-70
2021/04/04 09:03:50;;;;;;;6.00;3.20;;;8.60;99.90;;;;;;4991770;28;20655;-70
2021/04/04 09:06:17;;;;;;;5.30;3.03;;;8.60;99.90;;;;;;5010634;28;20324;-64
2021/04/04 09:08:44;;;;;;;5.57;3.20;;;8.60;99.90;;;;;;5003840;28;20206;-69
2021/04/04 09:11:12;;;;;;;5.03;2.63;;;8.50;99.90;;;;;;5003384;28;20205;-63
2021/04/04 09:13:40;;;;;;;5.03;2.70;;;8.50;99.90;;;;;;5003086;28;20209;-63
2021/04/04 09:16:11;;;;;;;6.10;3.20;;;8.40;99.90;;;;;;4992679;28;20597;-66
2021/04/04 09:18:46;;;;;;;5.90;3.40;;;8.40;99.90;;;;;;4989073;28;20198;-65
2021/04/04 09:21:13;;;;;;;6.67;3.30;;;8.40;99.90;;;;;;4990077;28;20204;-63
2021/04/04 09:23:43;;;;;;;8.40;3.83;;;8.40;99.90;;;;;;4991033;28;20198;-63
2021/04/04 09:26:11;;;;;;;5.53;2.63;;;8.40;99.90;;;;;;4991485;28;20693;-63
2021/04/04 09:28:40;;;;;;;3.47;2.07;;;8.50;99.90;;;;;;4983845;28;20217;-61
2021/04/04 09:31:18;;;;;;;4.13;2.33;;;8.50;99.90;;;;;;4990544;28;20237;-64
2021/04/04 09:33:51;;;;;;;6.53;2.50;;;8.60;99.90;;;;;;4990226;28;20224;-65
2021/04/04 09:36:18;;;;;;;5.27;2.70;;;8.70;99.90;;;;;;4976629;28;20205;-62
2021/04/04 09:38:46;;;;;;;4.30;2.60;;;8.50;99.90;;;;;;4976474;28;20213;-61
2021/04/04 09:41:13;;;;;;;4.97;2.40;;;8.50;99.90;;;;;;4995859;28;20194;-63
2021/04/04 09:43:41;;;;;;;4.77;2.33;;;8.50;99.90;;;;;;4995443;28;20236;-63
2021/04/04 09:46:08;;;;;;;3.13;2.60;;;8.60;99.90;;;;;;4995608;28;20209;-63
2021/04/04 09:48:40;;;;;;;5.67;2.60;;;8.40;99.90;;;;;;4990808;28;20622;-64
2021/04/04 09:51:08;;;;;;;5.07;2.57;;;8.50;99.90;;;;;;4995648;28;20221;-62
2021/04/04 09:53:40;;;;;;;2.17;1.97;;;8.40;99.90;;;;;;4987370;28;20217;-71
2021/04/04 09:56:08;;;;;;;7.37;1.97;;;8.30;99.90;;;;;;4988056;28;20249;-65
2021/04/04 09:58:37;;;;;;;2.87;2.33;;;8.30;99.90;;;;;;4987991;28;20546;-65
2021/04/04 10:01:14;;;;;;;7.10;2.80;;;8.50;99.90;;;;;;4994933;28;20211;-64
2021/04/04 10:03:40;;;;;;;3.93;2.17;;;8.70;99.90;;;;;;4989422;28;20221;-64
2021/04/04 10:06:12;;;;;;;3.30;2.10;;;8.80;99.90;;;;;;4991362;28;20217;-65
2021/04/04 10:08:38;;;;;;;1.97;1.63;;;9.00;99.90;;;;;;4993548;28;20213;-64
2021/04/04 10:11:15;;;;;;;1.70;1.60;;;9.10;99.90;;;;;;4991424;28;20205;-67
2021/04/04 10:13:42;;;;;;;2.60;1.50;;;9.30;99.90;;;;;;4993523;28;20315;-65
2021/04/04 10:16:19;;;;;;;3.40;1.80;;;9.20;99.90;;;;;;4993250;28;20213;-62
2021/04/04 10:19:03;;;;;;;3.53;1.73;;;9.40;99.90;;;;;;4991837;28;20223;-62
2021/04/04 10:21:30;;;;;;;2.17;1.70;;;9.50;99.90;;;;;;4994304;28;20208;-62
2021/04/04 10:23:57;;;;;;;1.67;1.50;;;9.70;99.90;;;;;;4990520;28;20613;-67
2021/04/04 10:26:24;;;;;;;3.97;1.73;;;9.80;99.90;;;;;;4994085;28;20221;-62
2021/04/04 10:28:53;;;;;;;3.53;1.73;;;9.90;99.90;;;;;;4987918;28;20206;-64
2021/04/04 10:31:23;;;;;;;2.93;2.00;;;9.90;99.90;;;;;;4993155;28;20233;-62
2021/04/04 10:33:57;;;;;;;2.07;1.83;;;10.10;99.90;;;;;;4991962;28;20213;-65
2021/04/04 10:36:25;;;;;;;3.77;2.00;;;10.10;99.90;;;;;;4993123;28;20229;-62
2021/04/04 10:38:52;;;;;;;3.60;1.70;;;9.90;99.90;;;;;;4990706;28;20197;-62
2021/04/04 10:41:26;;;;;;;2.23;1.60;;;9.80;99.90;;;;;;4988800;28;20205;-62
2021/04/04 10:43:52;;;;;;;2.57;1.80;;;9.90;99.90;;;;;;4989794;28;20217;-65
2021/04/04 10:46:25;;;;;;;4.63;2.00;;;10.00;99.90;;;;;;4994769;28;20202;-62
2021/04/04 10:48:52;;;;;;;2.90;1.90;;;10.00;99.90;;;;;;4992417;28;20584;-64
2021/04/04 10:51:20;;;;;;;2.30;1.70;;;10.20;99.90;;;;;;4992798;28;20209;-65
2021/04/04 10:53:47;;;;;;;2.87;2.07;;;10.40;99.90;;;;;;4992585;28;20205;-65
2021/04/04 10:56:15;;;;;;;2.20;1.60;;;10.50;99.90;;;;;;4994607;28;20216;-64
2021/04/04 10:58:43;;;;;;;2.40;2.20;;;10.40;99.90;;;;;;4990603;28;20205;-63
2021/04/04 11:01:12;;;;;;;2.50;1.90;;;10.40;99.90;;;;;;4992546;28;20648;-65
2021/04/04 11:03:41;;;;;;;2.10;1.90;;;10.40;99.90;;;;;;4987273;28;20213;-65
2021/04/04 11:06:08;;;;;;;3.53;2.30;;;10.30;99.90;;;;;;4990662;28;20205;-65
2021/04/04 11:08:35;;;;;;;3.87;2.20;;;10.20;99.90;;;;;;4990628;28;20248;-62
2021/04/04 11:11:05;;;;;;;3.27;1.90;;;10.10;99.90;;;;;;4987250;28;20644;-63
2021/04/04 11:13:43;;;;;;;3.00;1.73;;;9.90;99.90;;;;;;4992786;28;20209;-65
2021/04/04 11:16:12;;;;;;;3.20;1.90;;;9.70;99.90;;;;;;4990115;28;20240;-64
2021/04/04 11:18:43;;;;;;;2.67;1.80;;;9.70;99.90;;;;;;4989745;28;20678;-63
2021/04/04 11:21:12;;;;;;;3.67;2.53;;;9.80;99.90;;;;;;4986942;28;20202;-68
2021/04/04 11:23:39;;;;;;;3.47;2.13;;;9.70;99.90;;;;;;4994363;28;20221;-65
2021/04/04 11:26:24;;;;;;;3.30;2.40;;;9.60;99.90;;;;;;4987383;28;20206;-71
2021/04/04 11:29:12;;;;;;;4.00;2.10;;;9.40;99.90;;;;;;4991971;28;20209;-63
2021/04/04 11:31:39;;;;;;;2.43;1.87;;;9.40;99.90;;;;;;4983263;28;20299;-62
2021/04/04 11:34:27;;;;;;;6.30;2.17;;;9.50;99.90;;;;;;4993185;28;20560;-71
2021/04/04 11:36:54;;;;;;;3.30;1.80;;;9.50;99.90;;;;;;4980801;28;20261;-65
2021/04/04 11:39:21;;;;;;;2.30;1.83;;;9.60;99.90;;;;;;4991756;28;20204;-63
2021/04/04 11:41:50;;;;;;;4.90;1.93;;;9.80;99.90;;;;;;4985719;28;20246;-64
2021/04/04 11:44:24;;;;;;;2.83;2.00;;;9.80;99.90;;;;;;4989680;28;20566;-62
2021/04/04 11:46:53;;;;;;;3.80;2.20;;;9.70;99.90;;;;;;4994668;28;20229;-66
2021/04/04 11:49:37;;;;;;;3.50;2.03;;;9.60;99.90;;;;;;4983294;28;20347;-63
2021/04/04 11:52:37;;;;;;;3.83;2.50;;;9.70;99.90;;;;;;4991625;28;20202;-64
2021/04/04 11:55:05;;;;;;;4.13;2.47;;;9.70;99.90;;;;;;4990958;28;20293;-69
2021/04/04 11:57:33;;;;;;;3.13;2.40;;;9.90;99.90;;;;;;5001920;28;20793;-68
2021/04/04 12:00:01;;;;;;;4.80;2.70;;;10.00;99.90;;;;;;5003332;28;20627;-63
2021/04/04 12:02:29;;;;;;;6.20;2.20;;;10.00;99.90;;;;;;4991922;28;20327;-64
2021/04/04 12:05:01;;;;;;;3.40;2.70;;;10.00;99.90;;;;;;4990769;28;20202;-66
2021/04/04 12:07:28;;;;;;;5.87;2.37;;;10.10;99.90;;;;;;4983825;28;20237;-64
2021/04/04 12:09:55;;;;;;;4.80;1.97;;;10.00;99.90;;;;;;4991832;28;20205;-63
2021/04/04 12:12:22;;;;;;;4.93;2.37;;;10.00;99.90;;;;;;4990432;28;20301;-65
2021/04/04 12:14:50;;;;;;;2.90;2.27;;;9.90;99.90;;;;;;4995729;28;20213;-64
2021/04/04 12:17:18;;;;;;;3.87;2.30;;;9.80;99.90;;;;;;4997074;28;20260;-72
2021/04/04 12:19:46;;;;;;;3.43;2.50;;;9.90;99.90;;;;;;4990720;28;20263;-70
2021/04/04 12:22:15;;;;;;;4.87;2.50;;;10.00;99.90;;;;;;4988959;28;20205;-65
2021/04/04 12:24:43;;;;;;;3.27;2.20;;;10.10;99.90;;;;;;4999673;28;20212;-63
2021/04/04 12:27:10;;;;;;;3.03;2.07;;;10.20;99.90;;;;;;4991149;28;20225;-63
2021/04/04 12:29:44;;;;;;;4.00;2.27;;;10.20;99.90;;;;;;4986887;28;20206;-66
2021/04/04 12:32:19;;;;;;;2.70;2.00;;;10.10;99.90;;;;;;4993115;28;20233;-65
2021/04/04 12:34:46;;;;;;;5.17;2.30;;;10.10;99.90;;;;;;4993380;28;20208;-64
2021/04/04 12:37:15;;;;;;;3.97;2.00;;;10.30;99.90;;;;;;4991962;28;20205;-68
2021/04/04 12:39:41;;;;;;;2.23;1.87;;;10.20;99.90;;;;;;4989473;28;20213;-62
2021/04/04 12:42:11;;;;;;;3.63;2.80;;;10.10;99.90;;;;;;4989278;28;20210;-63
2021/04/04 12:44:39;;;;;;;6.17;2.73;;;10.10;99.90;;;;;;4990808;28;20231;-62
2021/04/04 12:47:07;;;;;;;4.30;2.33;;;10.00;99.90;;;;;;4989396;28;20225;-63
2021/04/04 12:49:34;;;;;;;3.33;2.43;;;10.10;99.90;;;;;;4986440;28;20571;-66
2021/04/04 12:52:01;;;;;;;4.23;2.40;;;10.20;99.90;;;;;;4991277;28;20202;-64
2021/04/04 12:54:29;;;;;;;4.50;2.50;;;10.00;99.90;;;;;;4983533;28;20847;-66
2021/04/04 12:56:56;;;;;;;2.47;2.20;;;9.80;99.90;;;;;;4989878;28;20256;-68
2021/04/04 12:59:23;;;;;;;6.40;2.87;;;9.90;99.90;;;;;;4988801;28;20198;-72
2021/04/04 13:01:49;;;;;;;4.33;2.33;;;9.80;99.90;;;;;;4991372;28;20259;-70
2021/04/04 13:04:17;;;;;;;4.93;2.63;;;9.80;99.90;;;;;;4990564;28;20199;-69
2021/04/04 13:06:44;;;;;;;6.13;2.60;;;9.80;99.90;;;;;;4990564;28;20311;-67
2021/04/04 13:09:12;;;;;;;3.40;2.50;;;9.80;99.90;;;;;;4994325;28;20206;-67
2021/04/04 13:11:40;;;;;;;3.80;2.40;;;9.80;99.90;;;;;;4998758;28;20214;-70
2021/04/04 13:14:07;;;;;;;3.77;2.27;;;9.90;99.90;;;;;;4985120;28;20225;-64